createdAt,value
2023-04-16T00:01:53.803Z,100225.81
2023-04-16T00:04:56.340Z,100227.75
2023-04-16T00:07:58.723Z,100209.63
2023-04-16T00:11:01.037Z,100212.78
2023-04-16T00:14:03.398Z,100236.72
2023-04-16T00:17:05.870Z,100204.63
2023-04-16T00:20:09.262Z,100226.56
2023-04-16T00:23:11.618Z,100221.72
2023-04-16T00:26:13.970Z,100208.72
2023-04-16T00:29:19.269Z,100222.81
2023-04-16T00:32:21.633Z,100247.19
2023-04-16T00:35:24.097Z,100246.38
2023-04-16T00:38:30.353Z,100226.75
2023-04-16T00:41:32.730Z,100243.19
2023-04-16T00:44:36.169Z,100230.97
2023-04-16T00:47:39.010Z,100254.50
2023-04-16T00:50:41.853Z,100259.16
2023-04-16T00:53:46.081Z,100263.03
2023-04-16T00:56:48.853Z,100247.28
2023-04-16T00:59:51.689Z,100245.72
2023-04-16T01:02:54.754Z,100234.00
2023-04-16T01:05:57.187Z,100243.72
2023-04-16T01:08:59.605Z,100245.31
2023-04-16T01:12:02.193Z,100236.66
2023-04-16T01:15:05.011Z,100249.22
2023-04-16T01:18:15.372Z,100246.50
2023-04-16T01:21:17.758Z,100240.94
2023-04-16T01:24:20.106Z,100245.72
2023-04-16T01:27:22.521Z,100247.22
2023-04-16T01:30:25.434Z,100221.25
2023-04-16T01:33:40.667Z,100239.69
2023-04-16T01:36:43.184Z,100244.09
2023-04-16T01:39:45.508Z,100234.19
2023-04-16T01:42:47.936Z,100227.13
2023-04-16T01:45:50.355Z,100254.53
2023-04-16T01:48:54.804Z,100230.22
2023-04-16T01:51:57.110Z,100254.91
2023-04-16T01:54:59.486Z,100244.22
2023-04-16T01:58:01.832Z,100246.94
2023-04-16T02:01:09.119Z,100254.38
2023-04-16T02:04:12.856Z,100249.25
2023-04-16T02:07:15.256Z,100262.53
2023-04-16T02:10:17.573Z,100253.13
2023-04-16T02:13:20.488Z,100251.13
2023-04-16T02:16:24.104Z,100263.69
2023-04-16T02:19:35.340Z,100244.53
2023-04-16T02:22:37.720Z,100251.59
2023-04-16T02:25:43.641Z,100264.84
2023-04-16T02:28:47.035Z,100259.41
2023-04-16T02:31:50.164Z,100236.16
2023-04-16T02:34:52.825Z,100269.50
2023-04-16T02:37:55.131Z,100258.00
2023-04-16T02:40:57.539Z,100273.28
2023-04-16T02:43:59.913Z,100281.03
2023-04-16T02:47:02.390Z,100272.44
2023-04-16T02:50:05.091Z,100259.84
2023-04-16T02:53:07.897Z,100281.09
2023-04-16T02:56:10.559Z,100277.94
2023-04-16T02:59:12.901Z,100269.22
2023-04-16T03:02:16.272Z,100265.72
2023-04-16T03:05:18.769Z,100277.09
2023-04-16T03:08:22.379Z,100293.41
2023-04-16T03:11:24.757Z,100287.19
2023-04-16T03:14:27.094Z,100288.75
2023-04-16T03:17:30.801Z,100287.19
2023-04-16T03:20:33.426Z,100282.31
2023-04-16T03:23:36.484Z,100289.47
2023-04-16T03:26:40.741Z,100297.63
2023-04-16T03:29:43.244Z,100300.34
2023-04-16T03:32:45.701Z,100290.13
2023-04-16T03:35:55.561Z,100297.13
2023-04-16T03:38:58.447Z,100286.06
2023-04-16T03:42:02.236Z,100285.75
2023-04-16T03:45:05.237Z,100293.13
2023-04-16T03:48:07.933Z,100323.63
2023-04-16T03:51:10.553Z,100312.22
2023-04-16T03:54:14.634Z,100316.88
2023-04-16T03:57:20.627Z,100324.75
2023-04-16T04:00:23.348Z,100323.97
2023-04-16T04:03:42.141Z,100336.41
2023-04-16T04:06:46.348Z,100337.50
2023-04-16T04:09:48.859Z,100343.00
2023-04-16T04:12:51.390Z,100348.44
2023-04-16T04:15:53.898Z,100354.53
2023-04-16T04:18:57.227Z,100362.47
2023-04-16T04:21:59.635Z,100354.94
2023-04-16T04:25:02.080Z,100349.88
2023-04-16T04:28:07.383Z,100351.44
2023-04-16T04:31:09.822Z,100346.78
2023-04-16T04:34:12.100Z,100350.03
2023-04-16T04:37:14.432Z,100361.75
2023-04-16T04:40:16.926Z,100348.88
2023-04-16T04:43:20.763Z,100337.06
2023-04-16T04:46:23.370Z,100351.03
2023-04-16T04:49:26.067Z,100351.09
2023-04-16T04:52:28.449Z,100334.19
2023-04-16T04:55:30.940Z,100338.56
2023-04-16T04:58:33.964Z,100350.72
2023-04-16T05:01:36.399Z,100355.56
2023-04-16T05:04:38.808Z,100339.00
2023-04-16T05:07:41.168Z,100361.06
2023-04-16T05:10:43.555Z,100337.56
2023-04-16T05:13:45.941Z,100361.56
2023-04-16T05:16:48.330Z,100362.00
2023-04-16T05:19:52.343Z,100369.00
2023-04-16T05:22:55.502Z,100354.91
2023-04-16T05:25:57.853Z,100375.66
2023-04-16T05:29:00.199Z,100375.31
2023-04-16T05:32:02.865Z,100380.03
2023-04-16T05:35:05.673Z,100363.91
2023-04-16T05:38:08.281Z,100351.53
2023-04-16T05:41:10.757Z,100371.13
2023-04-16T05:44:13.094Z,100380.66
2023-04-16T05:47:15.608Z,100363.75
2023-04-16T05:50:18.016Z,100377.16
2023-04-16T05:53:20.384Z,100383.88
2023-04-16T05:56:23.421Z,100386.22
2023-04-16T05:59:25.814Z,100395.19
2023-04-16T06:02:30.563Z,100401.84
2023-04-16T06:05:33.015Z,100403.84
2023-04-16T06:08:35.585Z,100412.06
2023-04-16T06:11:37.948Z,100394.75
2023-04-16T06:14:40.384Z,100420.72
2023-04-16T06:17:42.704Z,100406.56
2023-04-16T06:20:45.097Z,100424.66
2023-04-16T06:23:47.405Z,100409.41
2023-04-16T06:26:49.734Z,100416.56
2023-04-16T06:29:52.122Z,100407.59
2023-04-16T06:32:54.562Z,100426.31
2023-04-16T06:35:56.976Z,100427.09
2023-04-16T06:38:59.301Z,100429.03
2023-04-16T06:42:01.895Z,100424.31
2023-04-16T06:45:04.589Z,100424.72
2023-04-16T06:48:07.026Z,100425.88
2023-04-16T06:51:09.511Z,100414.94
2023-04-16T06:54:11.882Z,100410.63
2023-04-16T06:57:14.269Z,100411.41
2023-04-16T07:00:16.778Z,100411.41
2023-04-16T07:03:19.374Z,100415.66
2023-04-16T07:06:21.852Z,100432.19
2023-04-16T07:09:24.270Z,100417.72
2023-04-16T07:12:27.294Z,100408.25
2023-04-16T07:15:29.705Z,100407.84
2023-04-16T07:18:32.187Z,100411.41
2023-04-16T07:21:34.570Z,100432.59
2023-04-16T07:24:36.902Z,100421.59
2023-04-16T07:27:39.264Z,100437.31
2023-04-16T07:30:41.670Z,100429.94
2023-04-16T07:33:44.059Z,100433.53
2023-04-16T07:36:46.446Z,100424.69
2023-04-16T07:39:48.820Z,100426.03
2023-04-16T07:42:51.265Z,100431.53
2023-04-16T07:45:53.621Z,100437.25
2023-04-16T07:48:56.066Z,100433.91
2023-04-16T07:51:58.421Z,100439.09
2023-04-16T07:55:01.000Z,100424.31
2023-04-16T07:58:03.459Z,100420.78
2023-04-16T08:01:06.162Z,100424.34
2023-04-16T08:04:08.680Z,100432.59
2023-04-16T08:07:11.220Z,100411.91
2023-04-16T08:10:13.645Z,100419.78
2023-04-16T08:13:16.054Z,100411.19
2023-04-16T08:16:18.560Z,100404.16
2023-04-16T08:19:21.020Z,100414.69
2023-04-16T08:22:23.431Z,100413.13
2023-04-16T08:25:25.879Z,100414.38
2023-04-16T08:28:28.209Z,100422.25
2023-04-16T08:31:30.669Z,100409.34
2023-04-16T08:34:33.111Z,100406.19
2023-04-16T08:37:35.541Z,100418.34
2023-04-16T08:40:41.712Z,100421.13
2023-04-16T08:43:45.685Z,100413.78
2023-04-16T08:46:48.467Z,100424.31
2023-04-16T08:49:52.081Z,100420.84
2023-04-16T08:52:59.051Z,100404.81
2023-04-16T08:56:04.434Z,100415.03
2023-04-16T08:59:06.794Z,100416.22
2023-04-16T09:02:10.196Z,100425.19
2023-04-16T09:05:19.051Z,100430.28
2023-04-16T09:08:21.521Z,100431.84
2023-04-16T09:11:24.491Z,100424.00
2023-04-16T09:14:27.195Z,100427.94
2023-04-16T09:17:29.657Z,100443.59
2023-04-16T09:20:32.087Z,100438.53
2023-04-16T09:23:34.608Z,100447.91
2023-04-16T09:26:37.102Z,100444.34
2023-04-16T09:29:40.884Z,100446.75
2023-04-16T09:32:43.256Z,100445.59
2023-04-16T09:35:47.737Z,100449.53
2023-04-16T09:38:51.918Z,100446.00
2023-04-16T09:41:55.209Z,100446.38
2023-04-16T09:45:00.349Z,100436.56
2023-04-16T09:48:06.091Z,100431.44
2023-04-16T09:51:08.510Z,100448.38
2023-04-16T09:54:11.248Z,100436.56
2023-04-16T09:57:13.686Z,100447.50
2023-04-16T10:00:19.097Z,100438.06
2023-04-16T10:03:30.844Z,100449.09
2023-04-16T10:06:33.410Z,100427.88
2023-04-16T10:09:39.462Z,100437.31
2023-04-16T10:12:41.865Z,100426.69
2023-04-16T10:15:44.301Z,100424.00
2023-04-16T10:18:47.305Z,100432.59
2023-04-16T10:21:49.833Z,100436.94
2023-04-16T10:24:52.695Z,100422.78
2023-04-16T10:27:55.670Z,100444.75
2023-04-16T10:30:58.846Z,100434.63
2023-04-16T10:34:01.662Z,100419.66
2023-04-16T10:37:04.016Z,100438.16
2023-04-16T10:40:23.137Z,100418.22
2023-04-16T10:43:25.636Z,100420.16
2023-04-16T10:46:32.830Z,100432.28
2023-04-16T10:49:35.692Z,100438.94
2023-04-16T10:52:38.056Z,100428.34
2023-04-16T10:55:40.376Z,100425.97
2023-04-16T10:58:42.874Z,100422.84
2023-04-16T11:01:47.157Z,100428.72
2023-04-16T11:04:50.166Z,100420.47
2023-04-16T11:07:52.665Z,100409.06
2023-04-16T11:10:58.631Z,100435.38
2023-04-16T11:14:01.101Z,100418.91
2023-04-16T11:17:06.516Z,100424.38
2023-04-16T11:20:17.755Z,100438.47
2023-04-16T11:23:23.111Z,100433.00
2023-04-16T11:26:27.680Z,100415.75
2023-04-16T11:29:30.047Z,100407.94
2023-04-16T11:32:33.875Z,100415.84
2023-04-16T11:35:36.290Z,100407.22
2023-04-16T11:38:41.068Z,100424.84
2023-04-16T11:41:44.667Z,100420.47
2023-04-16T11:44:47.055Z,100419.38
2023-04-16T11:47:55.557Z,100413.50
2023-04-16T11:50:58.907Z,100413.44
2023-04-16T11:54:02.279Z,100400.19
2023-04-16T11:57:05.055Z,100406.50
2023-04-16T12:00:13.546Z,100399.84
2023-04-16T12:03:16.309Z,100388.16
2023-04-16T12:06:18.860Z,100403.84
2023-04-16T12:09:25.351Z,100389.78
2023-04-16T12:12:30.817Z,100397.22
2023-04-16T12:15:44.829Z,100390.59
2023-04-16T12:19:04.199Z,100376.16
2023-04-16T12:22:06.696Z,100381.25
2023-04-16T12:25:17.158Z,100384.41
2023-04-16T12:28:29.987Z,100381.66
2023-04-16T12:31:38.570Z,100378.56
2023-04-16T12:34:51.290Z,100377.00
2023-04-16T12:37:53.634Z,100349.97
2023-04-16T12:40:57.599Z,100370.38
2023-04-16T12:44:14.400Z,100359.88
2023-04-16T12:47:17.017Z,100360.63
2023-04-16T12:50:19.375Z,100348.50
2023-04-16T12:53:21.741Z,100344.22
2023-04-16T12:56:24.254Z,100352.47
2023-04-16T12:59:26.565Z,100349.75
2023-04-16T13:02:29.699Z,100344.28
2023-04-16T13:05:32.099Z,100339.19
2023-04-16T13:08:34.447Z,100341.16
2023-04-16T13:11:36.831Z,100340.41
2023-04-16T13:14:39.315Z,100338.47
2023-04-16T13:17:41.676Z,100325.09
2023-04-16T13:20:44.111Z,100341.97
2023-04-16T13:23:46.516Z,100327.84
2023-04-16T13:26:48.964Z,100319.59
2023-04-16T13:29:51.300Z,100338.84
2023-04-16T13:32:53.645Z,100331.00
2023-04-16T13:35:56.118Z,100334.56
2023-04-16T13:38:59.419Z,100320.41
2023-04-16T13:42:02.738Z,100344.69
2023-04-16T13:45:05.796Z,100331.44
2023-04-16T13:48:08.283Z,100310.31
2023-04-16T13:51:10.796Z,100314.59
2023-04-16T13:54:13.386Z,100305.22
2023-04-16T13:57:16.017Z,100320.13
2023-04-16T14:00:18.768Z,100294.31
2023-04-16T14:03:21.270Z,100298.22
2023-04-16T14:06:23.660Z,100314.69
2023-04-16T14:09:26.267Z,100311.94
2023-04-16T14:12:28.764Z,100308.84
2023-04-16T14:15:31.723Z,100316.25
2023-04-16T14:18:34.119Z,100290.03
2023-04-16T14:21:36.566Z,100315.47
2023-04-16T14:24:39.041Z,100301.38
2023-04-16T14:27:41.603Z,100301.78
2023-04-16T14:30:44.178Z,100292.41
2023-04-16T14:33:46.905Z,100296.72
2023-04-16T14:36:50.425Z,100291.56
2023-04-16T14:39:52.797Z,100297.88
2023-04-16T14:42:55.204Z,100288.13
2023-04-16T14:45:59.071Z,100283.00
2023-04-16T14:49:01.686Z,100270.03
2023-04-16T14:52:05.796Z,100298.25
2023-04-16T14:55:08.312Z,100295.16
2023-04-16T14:58:10.883Z,100285.34
2023-04-16T15:01:14.945Z,100288.50
2023-04-16T15:04:17.517Z,100292.03
2023-04-16T15:07:20.095Z,100275.53
2023-04-16T15:10:22.575Z,100284.59
2023-04-16T15:13:25.093Z,100283.06
2023-04-16T15:16:27.425Z,100298.63
2023-04-16T15:19:29.942Z,100276.28
2023-04-16T15:22:32.414Z,100292.78
2023-04-16T15:25:34.953Z,100286.53
2023-04-16T15:28:37.317Z,100290.41
2023-04-16T15:31:39.687Z,100297.41
2023-04-16T15:34:42.233Z,100283.28
2023-04-16T15:37:44.557Z,100293.47
2023-04-16T15:40:47.224Z,100285.63
2023-04-16T15:43:49.655Z,100273.94
2023-04-16T15:46:52.507Z,100281.72
2023-04-16T15:49:55.432Z,100291.53
2023-04-16T15:52:57.949Z,100286.03
2023-04-16T15:56:00.946Z,100270.78
2023-04-16T15:59:03.952Z,100282.56
2023-04-16T16:02:06.682Z,100292.69
2023-04-16T16:05:13.778Z,100289.19
2023-04-16T16:08:16.598Z,100289.56
2023-04-16T16:11:19.170Z,100285.63
2023-04-16T16:14:22.089Z,100287.19
2023-04-16T16:17:25.170Z,100275.81
2023-04-16T16:20:27.943Z,100284.81
2023-04-16T16:23:30.521Z,100292.25
2023-04-16T16:26:33.063Z,100295.72
2023-04-16T16:29:35.404Z,100290.25
2023-04-16T16:32:40.891Z,100292.59
2023-04-16T16:35:43.446Z,100294.94
2023-04-16T16:38:47.413Z,100283.19
2023-04-16T16:41:52.370Z,100286.34
2023-04-16T16:44:56.776Z,100273.00
2023-04-16T16:48:00.159Z,100277.25
2023-04-16T16:51:02.775Z,100288.66
2023-04-16T16:54:07.833Z,100304.59
2023-04-16T16:57:10.166Z,100303.03
2023-04-16T17:00:19.823Z,100295.97
2023-04-16T17:03:22.454Z,100286.56
2023-04-16T17:06:25.034Z,100304.97
2023-04-16T17:09:27.813Z,100306.50
2023-04-16T17:12:30.654Z,100297.50
2023-04-16T17:15:33.181Z,100296.38
2023-04-16T17:18:35.834Z,100306.50
2023-04-16T17:21:38.467Z,100310.03
2023-04-16T17:24:42.132Z,100296.25
2023-04-16T17:27:44.722Z,100305.59
2023-04-16T17:30:51.490Z,100314.28
2023-04-16T17:33:54.075Z,100320.47
2023-04-16T17:36:56.601Z,100299.69
2023-04-16T17:39:59.263Z,100324.75
2023-04-16T17:43:01.785Z,100323.22
2023-04-16T17:46:05.242Z,100319.59
2023-04-16T17:49:08.895Z,100315.69
2023-04-16T17:52:11.478Z,100324.28
2023-04-16T17:55:13.977Z,100329.34
2023-04-16T17:58:16.397Z,100339.91
2023-04-16T18:01:18.790Z,100333.25
2023-04-16T18:04:21.500Z,100328.16
2023-04-16T18:07:24.114Z,100326.22
2023-04-16T18:10:26.683Z,100332.81
2023-04-16T18:13:29.229Z,100340.59
2023-04-16T18:16:32.346Z,100343.69
2023-04-16T18:19:35.714Z,100331.84
2023-04-16T18:22:38.199Z,100310.78
2023-04-16T18:25:40.969Z,100328.84
2023-04-16T18:28:43.631Z,100342.44
2023-04-16T18:31:46.182Z,100345.91
2023-04-16T18:34:48.808Z,100348.63
2023-04-16T18:37:51.465Z,100346.59
2023-04-16T18:40:54.021Z,100359.13
2023-04-16T18:43:56.859Z,100346.13
2023-04-16T18:46:59.396Z,100343.41
2023-04-16T18:50:02.016Z,100338.28
2023-04-16T18:53:04.551Z,100332.03
2023-04-16T18:56:07.252Z,100353.94
2023-04-16T18:59:09.974Z,100351.84
2023-04-16T19:02:12.642Z,100366.31
2023-04-16T19:05:15.529Z,100351.06
2023-04-16T19:08:18.126Z,100358.13
2023-04-16T19:11:20.695Z,100357.34
2023-04-16T19:14:23.293Z,100350.28
2023-04-16T19:17:26.674Z,100326.38
2023-04-16T19:20:29.094Z,100342.41
2023-04-16T19:23:31.755Z,100338.09
2023-04-16T19:26:34.206Z,100332.19
2023-04-16T19:29:37.024Z,100336.06
2023-04-16T19:32:39.648Z,100347.09
2023-04-16T19:35:43.034Z,100327.47
2023-04-16T19:38:45.862Z,100342.41
2023-04-16T19:41:48.209Z,100347.47
2023-04-16T19:44:50.764Z,100346.63
2023-04-16T19:47:53.733Z,100345.13
2023-04-16T19:50:56.290Z,100338.09
2023-04-16T19:53:59.077Z,100343.88
2023-04-16T19:57:01.635Z,100332.09
2023-04-16T20:00:08.390Z,100345.41
2023-04-16T20:03:10.977Z,100333.25
2023-04-16T20:06:13.620Z,100332.94
2023-04-16T20:09:18.658Z,100335.28
2023-04-16T20:12:21.040Z,100345.41
2023-04-16T20:15:23.606Z,100343.47
2023-04-16T20:18:28.232Z,100336.81
2023-04-16T20:21:32.018Z,100333.31
2023-04-16T20:24:34.525Z,100321.16
2023-04-16T20:27:36.925Z,100336.81
2023-04-16T20:30:39.504Z,100329.78
2023-04-16T20:33:41.839Z,100327.44
2023-04-16T20:36:44.354Z,100334.81
2023-04-16T20:39:50.043Z,100328.59
2023-04-16T20:42:52.440Z,100324.59
2023-04-16T20:45:54.794Z,100323.81
2023-04-16T20:48:57.197Z,100321.03
2023-04-16T20:51:59.715Z,100330.53
2023-04-16T20:55:02.121Z,100328.16
2023-04-16T20:58:04.464Z,100328.94
2023-04-16T21:01:06.989Z,100288.88
2023-04-16T21:04:09.756Z,100317.25
2023-04-16T21:07:12.358Z,100319.22
2023-04-16T21:10:20.285Z,100325.34
2023-04-16T21:13:22.929Z,100328.84
2023-04-16T21:16:25.450Z,100335.88
2023-04-16T21:19:27.819Z,100321.94
2023-04-16T21:22:30.234Z,100314.91
2023-04-16T21:25:33.556Z,100323.09
2023-04-16T21:28:35.996Z,100319.94
2023-04-16T21:31:38.415Z,100331.25
2023-04-16T21:34:40.779Z,100330.41
2023-04-16T21:37:43.123Z,100317.22
2023-04-16T21:40:46.881Z,100318.00
2023-04-16T21:43:49.220Z,100324.25
2023-04-16T21:46:51.735Z,100304.63
2023-04-16T21:49:54.156Z,100313.22
2023-04-16T21:52:56.545Z,100301.13
2023-04-16T21:55:59.138Z,100306.16
2023-04-16T21:59:01.470Z,100312.91
2023-04-16T22:02:04.212Z,100315.63
2023-04-16T22:05:07.451Z,100302.34
2023-04-16T22:08:23.272Z,100302.34
2023-04-16T22:11:27.278Z,100298.78
2023-04-16T22:14:30.285Z,100312.50
2023-04-16T22:17:34.359Z,100292.06
2023-04-16T22:20:39.190Z,100309.34
2023-04-16T22:23:41.834Z,100303.44
2023-04-16T22:26:44.146Z,100300.03
2023-04-16T22:29:46.510Z,100299.59
2023-04-16T22:32:48.938Z,100278.88
2023-04-16T22:35:51.983Z,100299.59
2023-04-16T22:38:54.348Z,100275.31
2023-04-16T22:41:56.748Z,100279.22
2023-04-16T22:44:59.043Z,100291.44
2023-04-16T22:48:01.453Z,100286.63
2023-04-16T22:51:04.884Z,100289.88
2023-04-16T22:54:07.937Z,100290.66
2023-04-16T22:57:10.274Z,100277.72
2023-04-16T23:00:16.516Z,100285.56
2023-04-16T23:03:19.072Z,100278.13
2023-04-16T23:06:22.062Z,100274.25
2023-04-16T23:09:24.402Z,100264.47
2023-04-16T23:12:26.791Z,100270.38
2023-04-16T23:15:29.509Z,100271.16
2023-04-16T23:18:31.930Z,100271.16
2023-04-16T23:21:34.252Z,100270.38
2023-04-16T23:24:36.605Z,100261.78
2023-04-16T23:27:38.961Z,100265.28
2023-04-16T23:30:41.318Z,100263.34
2023-04-16T23:33:43.613Z,100259.47
2023-04-16T23:36:46.404Z,100247.38
2023-04-16T23:39:48.752Z,100253.19
2023-04-16T23:42:51.113Z,100235.22
2023-04-16T23:45:53.506Z,100248.16
2023-04-16T23:48:55.948Z,100250.09
2023-04-16T23:51:58.378Z,100242.63
2023-04-16T23:55:00.779Z,100249.31
2023-04-16T23:58:03.190Z,100235.97
